sensor_id;sensor_type;location;lat;lon;timestamp;temperature;humidity
10312;DHT22;5201;48.776;9.128;2023-05-07T00:01:54;16.10;99.90
10312;DHT22;5201;48.776;9.128;2023-05-07T00:04:19;16.00;99.90
10312;DHT22;5201;48.776;9.128;2023-05-07T00:06:45;15.90;99.90
10312;DHT22;5201;48.776;9.128;2023-05-07T00:09:11;15.90;99.90
10312;DHT22;5201;48.776;9.128;2023-05-07T00:11:37;15.90;99.90
10312;DHT22;5201;48.776;9.128;2023-05-07T00:14:02;15.90;99.90
10312;DHT22;5201;48.776;9.128;2023-05-07T00:16:28;15.80;99.90
10312;DHT22;5201;48.776;9.128;2023-05-07T00:18:53;15.80;99.90
10312;DHT22;5201;48.776;9.128;2023-05-07T00:21:19;15.80;99.90
10312;DHT22;5201;48.776;9.128;2023-05-07T00:23:45;15.70;99.90
10312;DHT22;5201;48.776;9.128;2023-05-07T00:26:10;15.80;99.90
10312;DHT22;5201;48.776;9.128;2023-05-07T00:28:36;15.60;99.90
10312;DHT22;5201;48.776;9.128;2023-05-07T00:31:01;15.70;99.90
10312;DHT22;5201;48.776;9.128;2023-05-07T00:33:27;15.70;99.90
10312;DHT22;5201;48.776;9.128;2023-05-07T00:35:52;15.60;99.90
10312;DHT22;5201;48.776;9.128;2023-05-07T00:38:19;15.60;99.90
10312;DHT22;5201;48.776;9.128;2023-05-07T00:40:45;15.60;99.90
10312;DHT22;5201;48.776;9.128;2023-05-07T00:43:11;15.50;99.90
10312;DHT22;5201;48.776;9.128;2023-05-07T00:45:38;15.60;99.90
10312;DHT22;5201;48.776;9.128;2023-05-07T00:48:03;15.60;99.90
10312;DHT22;5201;48.776;9.128;2023-05-07T00:50:30;15.60;99.90
10312;DHT22;5201;48.776;9.128;2023-05-07T00:52:56;15.60;99.90
10312;DHT22;5201;48.776;9.128;2023-05-07T00:55:22;15.70;99.90
10312;DHT22;5201;48.776;9.128;2023-05-07T00:57:49;15.60;99.90
10312;DHT22;5201;48.776;9.128;2023-05-07T01:00:15;16.00;99.90
10312;DHT22;5201;48.776;9.128;2023-05-07T01:02:42;15.50;99.90
10312;DHT22;5201;48.776;9.128;2023-05-07T01:05:09;15.80;99.90
10312;DHT22;5201;48.776;9.128;2023-05-07T01:07:37;15.40;99.90
10312;DHT22;5201;48.776;9.128;2023-05-07T01:10:05;15.40;99.90
10312;DHT22;5201;48.776;9.128;2023-05-07T01:12:31;15.40;99.90
10312;DHT22;5201;48.776;9.128;2023-05-07T01:14:58;15.40;99.90
10312;DHT22;5201;48.776;9.128;2023-05-07T01:17:23;15.40;99.90
10312;DHT22;5201;48.776;9.128;2023-05-07T01:19:50;15.40;99.90
10312;DHT22;5201;48.776;9.128;2023-05-07T01:22:39;15.40;99.90
10312;DHT22;5201;48.776;9.128;2023-05-07T01:25:06;15.30;99.90
10312;DHT22;5201;48.776;9.128;2023-05-07T01:27:32;15.30;99.90
10312;DHT22;5201;48.776;9.128;2023-05-07T01:30:03;15.30;99.90
10312;DHT22;5201;48.776;9.128;2023-05-07T01:32:37;15.20;99.90
10312;DHT22;5201;48.776;9.128;2023-05-07T01:35:05;15.20;99.90
10312;DHT22;5201;48.776;9.128;2023-05-07T01:37:33;15.10;99.90
10312;DHT22;5201;48.776;9.128;2023-05-07T01:39:59;15.10;99.90
10312;DHT22;5201;48.776;9.128;2023-05-07T01:42:25;15.10;99.90
10312;DHT22;5201;48.776;9.128;2023-05-07T01:44:51;15.20;99.90
10312;DHT22;5201;48.776;9.128;2023-05-07T01:47:17;15.20;99.90
10312;DHT22;5201;48.776;9.128;2023-05-07T01:49:43;15.10;99.90
10312;DHT22;5201;48.776;9.128;2023-05-07T01:52:10;15.10;99.90
10312;DHT22;5201;48.776;9.128;2023-05-07T01:54:36;15.10;99.90
10312;DHT22;5201;48.776;9.128;2023-05-07T01:57:02;15.10;99.90
10312;DHT22;5201;48.776;9.128;2023-05-07T01:59:27;15.10;99.90
10312;DHT22;5201;48.776;9.128;2023-05-07T02:01:53;15.10;99.90
10312;DHT22;5201;48.776;9.128;2023-05-07T02:04:18;15.30;99.90
10312;DHT22;5201;48.776;9.128;2023-05-07T02:06:44;15.10;99.90
10312;DHT22;5201;48.776;9.128;2023-05-07T02:09:10;15.10;99.90
10312;DHT22;5201;48.776;9.128;2023-05-07T02:11:36;15.10;99.90
10312;DHT22;5201;48.776;9.128;2023-05-07T02:14:01;15.10;99.90
10312;DHT22;5201;48.776;9.128;2023-05-07T02:16:27;15.00;99.90
10312;DHT22;5201;48.776;9.128;2023-05-07T02:18:52;15.00;99.90
10312;DHT22;5201;48.776;9.128;2023-05-07T02:21:18;15.10;99.90
10312;DHT22;5201;48.776;9.128;2023-05-07T02:23:44;15.10;99.90
10312;DHT22;5201;48.776;9.128;2023-05-07T02:26:10;15.20;99.90
10312;DHT22;5201;48.776;9.128;2023-05-07T02:28:36;15.40;99.90
10312;DHT22;5201;48.776;9.128;2023-05-07T02:31:05;15.30;99.90
10312;DHT22;5201;48.776;9.128;2023-05-07T02:33:30;15.30;99.90
10312;DHT22;5201;48.776;9.128;2023-05-07T02:35:56;15.60;99.90
10312;DHT22;5201;48.776;9.128;2023-05-07T02:38:22;15.30;99.90
10312;DHT22;5201;48.776;9.128;2023-05-07T02:40:48;15.20;99.90
10312;DHT22;5201;48.776;9.128;2023-05-07T02:43:13;15.30;99.90
10312;DHT22;5201;48.776;9.128;2023-05-07T02:45:39;15.10;99.90
10312;DHT22;5201;48.776;9.128;2023-05-07T02:48:05;15.00;99.90
10312;DHT22;5201;48.776;9.128;2023-05-07T02:50:33;15.00;99.90
10312;DHT22;5201;48.776;9.128;2023-05-07T02:52:59;14.90;99.90
10312;DHT22;5201;48.776;9.128;2023-05-07T02:55:24;14.90;99.90
10312;DHT22;5201;48.776;9.128;2023-05-07T02:57:50;14.80;99.90
10312;DHT22;5201;48.776;9.128;2023-05-07T03:00:17;14.70;99.90
10312;DHT22;5201;48.776;9.128;2023-05-07T03:02:44;14.70;99.90
10312;DHT22;5201;48.776;9.128;2023-05-07T03:05:10;14.80;99.90
10312;DHT22;5201;48.776;9.128;2023-05-07T03:07:37;15.20;99.90
10312;DHT22;5201;48.776;9.128;2023-05-07T03:10:03;14.70;99.90
10312;DHT22;5201;48.776;9.128;2023-05-07T03:12:29;14.70;99.90
10312;DHT22;5201;48.776;9.128;2023-05-07T03:14:55;14.60;99.90
10312;DHT22;5201;48.776;9.128;2023-05-07T03:17:21;14.60;99.90
10312;DHT22;5201;48.776;9.128;2023-05-07T03:19:47;14.50;99.90
10312;DHT22;5201;48.776;9.128;2023-05-07T03:22:13;14.80;99.90
10312;DHT22;5201;48.776;9.128;2023-05-07T03:24:38;14.40;99.90
10312;DHT22;5201;48.776;9.128;2023-05-07T03:27:04;14.40;99.90
10312;DHT22;5201;48.776;9.128;2023-05-07T03:29:29;14.40;99.90
10312;DHT22;5201;48.776;9.128;2023-05-07T03:31:55;14.70;99.90
10312;DHT22;5201;48.776;9.128;2023-05-07T03:34:20;14.30;99.90
10312;DHT22;5201;48.776;9.128;2023-05-07T03:36:50;14.30;99.90
10312;DHT22;5201;48.776;9.128;2023-05-07T03:39:16;14.30;99.90
10312;DHT22;5201;48.776;9.128;2023-05-07T03:41:42;14.40;99.90
10312;DHT22;5201;48.776;9.128;2023-05-07T03:44:07;14.50;99.90
10312;DHT22;5201;48.776;9.128;2023-05-07T03:46:33;14.40;99.90
10312;DHT22;5201;48.776;9.128;2023-05-07T03:48:59;14.40;99.90
10312;DHT22;5201;48.776;9.128;2023-05-07T03:51:25;14.20;99.90
10312;DHT22;5201;48.776;9.128;2023-05-07T03:53:51;14.20;99.90
10312;DHT22;5201;48.776;9.128;2023-05-07T03:56:18;14.20;99.90
10312;DHT22;5201;48.776;9.128;2023-05-07T03:58:44;14.20;99.90
10312;DHT22;5201;48.776;9.128;2023-05-07T04:01:10;14.70;99.90
10312;DHT22;5201;48.776;9.128;2023-05-07T04:03:36;14.10;99.90
10312;DHT22;5201;48.776;9.128;2023-05-07T04:06:02;14.10;99.90
10312;DHT22;5201;48.776;9.128;2023-05-07T04:08:28;14.10;99.90
10312;DHT22;5201;48.776;9.128;2023-05-07T04:10:57;14.10;99.90
10312;DHT22;5201;48.776;9.128;2023-05-07T04:13:23;14.30;99.90
10312;DHT22;5201;48.776;9.128;2023-05-07T04:15:48;14.20;99.90
10312;DHT22;5201;48.776;9.128;2023-05-07T04:18:14;14.20;99.90
10312;DHT22;5201;48.776;9.128;2023-05-07T04:20:40;14.20;99.90
10312;DHT22;5201;48.776;9.128;2023-05-07T04:23:06;14.10;99.90
10312;DHT22;5201;48.776;9.128;2023-05-07T04:25:32;14.10;99.90
10312;DHT22;5201;48.776;9.128;2023-05-07T04:27:58;14.10;99.90
10312;DHT22;5201;48.776;9.128;2023-05-07T04:30:24;14.20;99.90
10312;DHT22;5201;48.776;9.128;2023-05-07T04:32:49;14.30;99.90
10312;DHT22;5201;48.776;9.128;2023-05-07T04:35:15;14.20;99.90
10312;DHT22;5201;48.776;9.128;2023-05-07T04:37:41;14.20;99.90
10312;DHT22;5201;48.776;9.128;2023-05-07T04:40:07;14.30;99.90
10312;DHT22;5201;48.776;9.128;2023-05-07T04:42:32;14.30;99.90
10312;DHT22;5201;48.776;9.128;2023-05-07T04:44:58;14.30;99.90
10312;DHT22;5201;48.776;9.128;2023-05-07T04:47:24;14.40;99.90
10312;DHT22;5201;48.776;9.128;2023-05-07T04:49:49;13.40;99.90
10312;DHT22;5201;48.776;9.128;2023-05-07T04:52:15;14.40;99.90
10312;DHT22;5201;48.776;9.128;2023-05-07T04:54:41;14.40;99.90
10312;DHT22;5201;48.776;9.128;2023-05-07T04:57:06;14.40;99.90
10312;DHT22;5201;48.776;9.128;2023-05-07T04:59:33;14.40;99.90
10312;DHT22;5201;48.776;9.128;2023-05-07T05:01:58;14.30;99.90
10312;DHT22;5201;48.776;9.128;2023-05-07T05:04:24;14.30;99.90
10312;DHT22;5201;48.776;9.128;2023-05-07T05:06:49;14.40;99.90
10312;DHT22;5201;48.776;9.128;2023-05-07T05:09:15;14.40;99.90
10312;DHT22;5201;48.776;9.128;2023-05-07T05:11:41;14.30;99.90
10312;DHT22;5201;48.776;9.128;2023-05-07T05:14:07;14.50;99.90
10312;DHT22;5201;48.776;9.128;2023-05-07T05:16:32;14.40;99.90
10312;DHT22;5201;48.776;9.128;2023-05-07T05:18:58;14.40;99.90
10312;DHT22;5201;48.776;9.128;2023-05-07T05:21:24;14.50;99.90
10312;DHT22;5201;48.776;9.128;2023-05-07T05:23:50;14.60;99.90
10312;DHT22;5201;48.776;9.128;2023-05-07T05:26:15;14.60;99.90
10312;DHT22;5201;48.776;9.128;2023-05-07T05:28:41;14.60;99.90
10312;DHT22;5201;48.776;9.128;2023-05-07T05:31:06;14.80;99.90
10312;DHT22;5201;48.776;9.128;2023-05-07T05:33:32;14.90;99.90
10312;DHT22;5201;48.776;9.128;2023-05-07T05:35:58;15.00;99.90
10312;DHT22;5201;48.776;9.128;2023-05-07T05:38:23;15.30;99.90
10312;DHT22;5201;48.776;9.128;2023-05-07T05:40:49;15.40;99.90
10312;DHT22;5201;48.776;9.128;2023-05-07T05:43:14;15.30;99.90
10312;DHT22;5201;48.776;9.128;2023-05-07T05:45:40;15.30;99.90
10312;DHT22;5201;48.776;9.128;2023-05-07T05:48:06;15.40;99.90
10312;DHT22;5201;48.776;9.128;2023-05-07T05:50:32;15.50;99.90
10312;DHT22;5201;48.776;9.128;2023-05-07T05:52:57;15.70;99.90
10312;DHT22;5201;48.776;9.128;2023-05-07T05:55:23;15.90;99.90
10312;DHT22;5201;48.776;9.128;2023-05-07T05:57:49;15.90;99.90
10312;DHT22;5201;48.776;9.128;2023-05-07T06:00:16;16.00;99.90
10312;DHT22;5201;48.776;9.128;2023-05-07T06:02:42;16.10;99.90
10312;DHT22;5201;48.776;9.128;2023-05-07T06:05:08;16.10;99.90
10312;DHT22;5201;48.776;9.128;2023-05-07T06:07:34;16.30;99.90
10312;DHT22;5201;48.776;9.128;2023-05-07T06:10:00;16.60;99.90
10312;DHT22;5201;48.776;9.128;2023-05-07T06:12:26;17.10;99.90
10312;DHT22;5201;48.776;9.128;2023-05-07T06:14:52;18.00;99.90
10312;DHT22;5201;48.776;9.128;2023-05-07T06:17:17;19.00;99.90
10312;DHT22;5201;48.776;9.128;2023-05-07T06:19:43;19.60;99.90
10312;DHT22;5201;48.776;9.128;2023-05-07T06:22:09;19.90;99.90
10312;DHT22;5201;48.776;9.128;2023-05-07T06:24:35;19.90;99.90
10312;DHT22;5201;48.776;9.128;2023-05-07T06:27:00;19.90;99.90
10312;DHT22;5201;48.776;9.128;2023-05-07T06:29:26;19.80;99.90
10312;DHT22;5201;48.776;9.128;2023-05-07T06:31:53;19.50;99.90
10312;DHT22;5201;48.776;9.128;2023-05-07T06:34:18;19.30;99.90
10312;DHT22;5201;48.776;9.128;2023-05-07T06:36:44;19.40;99.90
10312;DHT22;5201;48.776;9.128;2023-05-07T06:39:09;19.30;99.90
10312;DHT22;5201;48.776;9.128;2023-05-07T06:41:35;19.80;99.90
10312;DHT22;5201;48.776;9.128;2023-05-07T06:44:04;20.30;99.90
10312;DHT22;5201;48.776;9.128;2023-05-07T06:46:30;20.60;99.90
10312;DHT22;5201;48.776;9.128;2023-05-07T06:48:56;20.80;99.90
10312;DHT22;5201;48.776;9.128;2023-05-07T06:51:22;21.30;99.90
10312;DHT22;5201;48.776;9.128;2023-05-07T06:53:48;22.50;99.90
10312;DHT22;5201;48.776;9.128;2023-05-07T06:56:13;23.60;99.90
10312;DHT22;5201;48.776;9.128;2023-05-07T06:58:39;24.40;99.90
10312;DHT22;5201;48.776;9.128;2023-05-07T07:01:04;25.30;99.90
10312;DHT22;5201;48.776;9.128;2023-05-07T07:03:30;25.80;99.30
10312;DHT22;5201;48.776;9.128;2023-05-07T07:05:55;26.20;98.30
10312;DHT22;5201;48.776;9.128;2023-05-07T07:08:22;26.60;98.20
10312;DHT22;5201;48.776;9.128;2023-05-07T07:10:48;26.60;97.50
10312;DHT22;5201;48.776;9.128;2023-05-07T07:13:13;26.50;96.70
10312;DHT22;5201;48.776;9.128;2023-05-07T07:15:39;26.20;97.00
10312;DHT22;5201;48.776;9.128;2023-05-07T07:18:05;26.30;97.00
10312;DHT22;5201;48.776;9.128;2023-05-07T07:20:31;25.60;96.80
10312;DHT22;5201;48.776;9.128;2023-05-07T07:22:57;24.80;98.10
10312;DHT22;5201;48.776;9.128;2023-05-07T07:25:22;25.50;98.20
10312;DHT22;5201;48.776;9.128;2023-05-07T07:27:49;26.40;97.20
10312;DHT22;5201;48.776;9.128;2023-05-07T07:30:15;27.30;96.30
10312;DHT22;5201;48.776;9.128;2023-05-07T07:32:41;28.00;95.50
10312;DHT22;5201;48.776;9.128;2023-05-07T07:35:06;28.20;94.50
10312;DHT22;5201;48.776;9.128;2023-05-07T07:37:32;27.90;94.90
10312;DHT22;5201;48.776;9.128;2023-05-07T07:39:58;27.60;94.80
10312;DHT22;5201;48.776;9.128;2023-05-07T07:42:23;27.50;95.40
10312;DHT22;5201;48.776;9.128;2023-05-07T07:44:49;27.80;94.70
10312;DHT22;5201;48.776;9.128;2023-05-07T07:47:15;27.90;94.20
10312;DHT22;5201;48.776;9.128;2023-05-07T07:49:41;27.50;94.50
10312;DHT22;5201;48.776;9.128;2023-05-07T07:52:06;26.80;95.10
10312;DHT22;5201;48.776;9.128;2023-05-07T07:54:32;25.70;95.90
10312;DHT22;5201;48.776;9.128;2023-05-07T07:56:58;24.70;96.90
10312;DHT22;5201;48.776;9.128;2023-05-07T07:59:23;24.10;98.10
10312;DHT22;5201;48.776;9.128;2023-05-07T08:01:49;24.40;98.60
10312;DHT22;5201;48.776;9.128;2023-05-07T08:04:15;24.50;98.40
10312;DHT22;5201;48.776;9.128;2023-05-07T08:06:41;24.80;98.30
10312;DHT22;5201;48.776;9.128;2023-05-07T08:09:07;25.00;98.00
10312;DHT22;5201;48.776;9.128;2023-05-07T08:11:33;25.10;97.80
10312;DHT22;5201;48.776;9.128;2023-05-07T08:13:59;24.70;97.70
10312;DHT22;5201;48.776;9.128;2023-05-07T08:16:24;24.70;98.50
10312;DHT22;5201;48.776;9.128;2023-05-07T08:18:50;24.70;97.70
10312;DHT22;5201;48.776;9.128;2023-05-07T08:21:16;25.00;98.20
10312;DHT22;5201;48.776;9.128;2023-05-07T08:23:41;25.80;98.00
10312;DHT22;5201;48.776;9.128;2023-05-07T08:26:08;26.80;97.30
10312;DHT22;5201;48.776;9.128;2023-05-07T08:28:33;27.40;95.70
10312;DHT22;5201;48.776;9.128;2023-05-07T08:30:59;27.60;95.70
10312;DHT22;5201;48.776;9.128;2023-05-07T08:33:26;27.10;95.40
10312;DHT22;5201;48.776;9.128;2023-05-07T08:35:52;27.00;95.80
10312;DHT22;5201;48.776;9.128;2023-05-07T08:38:17;26.80;95.30
10312;DHT22;5201;48.776;9.128;2023-05-07T08:40:43;26.00;96.30
10312;DHT22;5201;48.776;9.128;2023-05-07T08:43:12;25.60;96.70
10312;DHT22;5201;48.776;9.128;2023-05-07T08:45:40;25.80;96.80
10312;DHT22;5201;48.776;9.128;2023-05-07T08:48:15;26.00;96.40
10312;DHT22;5201;48.776;9.128;2023-05-07T08:50:41;26.30;96.50
10312;DHT22;5201;48.776;9.128;2023-05-07T08:53:06;26.80;96.40
10312;DHT22;5201;48.776;9.128;2023-05-07T08:55:32;27.60;96.10
10312;DHT22;5201;48.776;9.128;2023-05-07T08:57:59;28.00;95.30
10312;DHT22;5201;48.776;9.128;2023-05-07T09:00:24;28.40;94.20
10312;DHT22;5201;48.776;9.128;2023-05-07T09:02:52;28.60;93.70
10312;DHT22;5201;48.776;9.128;2023-05-07T09:05:18;27.80;94.70
10312;DHT22;5201;48.776;9.128;2023-05-07T09:07:44;27.10;94.70
10312;DHT22;5201;48.776;9.128;2023-05-07T09:10:11;26.90;95.50
10312;DHT22;5201;48.776;9.128;2023-05-07T09:12:37;27.20;94.80
10312;DHT22;5201;48.776;9.128;2023-05-07T09:15:05;26.90;95.10
10312;DHT22;5201;48.776;9.128;2023-05-07T09:17:31;27.30;94.70
10312;DHT22;5201;48.776;9.128;2023-05-07T09:20:01;27.30;94.60
10312;DHT22;5201;48.776;9.128;2023-05-07T09:22:27;27.00;95.30
10312;DHT22;5201;48.776;9.128;2023-05-07T09:24:52;26.90;95.30
10312;DHT22;5201;48.776;9.128;2023-05-07T09:27:18;27.20;94.90
10312;DHT22;5201;48.776;9.128;2023-05-07T09:29:44;26.80;95.50
10312;DHT22;5201;48.776;9.128;2023-05-07T09:32:10;27.50;94.60
10312;DHT22;5201;48.776;9.128;2023-05-07T09:34:36;27.90;95.30
10312;DHT22;5201;48.776;9.128;2023-05-07T09:37:02;28.10;94.30
10312;DHT22;5201;48.776;9.128;2023-05-07T09:39:44;27.80;94.10
10312;DHT22;5201;48.776;9.128;2023-05-07T09:42:10;28.10;93.70
10312;DHT22;5201;48.776;9.128;2023-05-07T09:44:37;28.50;93.60
10312;DHT22;5201;48.776;9.128;2023-05-07T09:47:07;28.60;93.40
10312;DHT22;5201;48.776;9.128;2023-05-07T09:49:37;28.80;93.30
10312;DHT22;5201;48.776;9.128;2023-05-07T09:52:05;28.00;92.70
10312;DHT22;5201;48.776;9.128;2023-05-07T09:54:32;28.10;93.50
10312;DHT22;5201;48.776;9.128;2023-05-07T09:56:59;28.50;93.30
10312;DHT22;5201;48.776;9.128;2023-05-07T09:59:27;28.80;93.50
10312;DHT22;5201;48.776;9.128;2023-05-07T10:01:57;29.00;92.60
10312;DHT22;5201;48.776;9.128;2023-05-07T10:04:24;28.90;93.00
10312;DHT22;5201;48.776;9.128;2023-05-07T10:06:50;28.50;93.20
10312;DHT22;5201;48.776;9.128;2023-05-07T10:09:16;28.70;93.30
10312;DHT22;5201;48.776;9.128;2023-05-07T10:11:42;28.80;92.50
10312;DHT22;5201;48.776;9.128;2023-05-07T10:14:09;28.40;93.50
10312;DHT22;5201;48.776;9.128;2023-05-07T10:16:36;27.90;92.80
10312;DHT22;5201;48.776;9.128;2023-05-07T10:19:03;27.30;92.80
10312;DHT22;5201;48.776;9.128;2023-05-07T10:21:30;27.20;93.50
10312;DHT22;5201;48.776;9.128;2023-05-07T10:24:04;27.60;93.80
10312;DHT22;5201;48.776;9.128;2023-05-07T10:26:36;27.60;93.20
10312;DHT22;5201;48.776;9.128;2023-05-07T10:29:07;27.60;93.60
10312;DHT22;5201;48.776;9.128;2023-05-07T10:31:43;27.40;93.60
10312;DHT22;5201;48.776;9.128;2023-05-07T10:34:16;27.70;93.20
10312;DHT22;5201;48.776;9.128;2023-05-07T10:36:43;27.50;93.50
10312;DHT22;5201;48.776;9.128;2023-05-07T10:39:09;27.90;92.90
10312;DHT22;5201;48.776;9.128;2023-05-07T10:41:35;27.60;92.40
10312;DHT22;5201;48.776;9.128;2023-05-07T10:44:02;27.40;92.60
10312;DHT22;5201;48.776;9.128;2023-05-07T10:46:27;26.70;93.70
10312;DHT22;5201;48.776;9.128;2023-05-07T10:51:30;26.50;94.20
10312;DHT22;5201;48.776;9.128;2023-05-07T10:56:41;26.80;94.40
10312;DHT22;5201;48.776;9.128;2023-05-07T11:02:00;27.60;93.80
10312;DHT22;5201;48.776;9.128;2023-05-07T11:04:31;27.90;92.90
10312;DHT22;5201;48.776;9.128;2023-05-07T11:17:32;27.60;92.20
10312;DHT22;5201;48.776;9.128;2023-05-07T11:20:01;27.30;92.20
10312;DHT22;5201;48.776;9.128;2023-05-07T11:25:03;26.70;92.90
10312;DHT22;5201;48.776;9.128;2023-05-07T11:27:29;26.20;93.20
10312;DHT22;5201;48.776;9.128;2023-05-07T11:29:55;25.90;93.90
10312;DHT22;5201;48.776;9.128;2023-05-07T11:32:29;25.80;94.20
10312;DHT22;5201;48.776;9.128;2023-05-07T11:34:56;25.60;94.40
10312;DHT22;5201;48.776;9.128;2023-05-07T11:37:23;25.60;94.50
10312;DHT22;5201;48.776;9.128;2023-05-07T11:39:50;25.60;94.10
10312;DHT22;5201;48.776;9.128;2023-05-07T11:42:35;25.50;93.50
10312;DHT22;5201;48.776;9.128;2023-05-07T11:45:03;25.30;93.80
10312;DHT22;5201;48.776;9.128;2023-05-07T11:47:32;25.20;96.50
10312;DHT22;5201;48.776;9.128;2023-05-07T11:50:03;24.80;99.90
10312;DHT22;5201;48.776;9.128;2023-05-07T11:52:33;24.60;99.90
10312;DHT22;5201;48.776;9.128;2023-05-07T11:55:00;24.30;99.90
10312;DHT22;5201;48.776;9.128;2023-05-07T11:57:27;23.90;99.90
10312;DHT22;5201;48.776;9.128;2023-05-07T11:59:53;23.50;99.90
10312;DHT22;5201;48.776;9.128;2023-05-07T12:02:19;23.10;99.90
10312;DHT22;5201;48.776;9.128;2023-05-07T12:04:45;23.00;99.90
10312;DHT22;5201;48.776;9.128;2023-05-07T12:07:17;22.70;99.90
10312;DHT22;5201;48.776;9.128;2023-05-07T12:09:44;22.60;99.90
10312;DHT22;5201;48.776;9.128;2023-05-07T12:12:10;22.00;99.90
10312;DHT22;5201;48.776;9.128;2023-05-07T12:14:40;21.70;99.90
10312;DHT22;5201;48.776;9.128;2023-05-07T12:17:07;21.60;99.90
10312;DHT22;5201;48.776;9.128;2023-05-07T12:19:35;21.40;99.90
10312;DHT22;5201;48.776;9.128;2023-05-07T12:22:02;20.90;99.90
10312;DHT22;5201;48.776;9.128;2023-05-07T12:24:28;20.50;99.90
10312;DHT22;5201;48.776;9.128;2023-05-07T12:26:53;20.30;99.90
10312;DHT22;5201;48.776;9.128;2023-05-07T12:29:22;20.20;99.90
10312;DHT22;5201;48.776;9.128;2023-05-07T12:31:49;20.30;99.90
10312;DHT22;5201;48.776;9.128;2023-05-07T12:34:15;20.40;99.90
10312;DHT22;5201;48.776;9.128;2023-05-07T12:36:41;20.10;99.90
10312;DHT22;5201;48.776;9.128;2023-05-07T12:39:07;19.50;99.90
10312;DHT22;5201;48.776;9.128;2023-05-07T12:41:56;19.00;99.90
10312;DHT22;5201;48.776;9.128;2023-05-07T12:44:25;18.60;99.90
10312;DHT22;5201;48.776;9.128;2023-05-07T12:46:51;18.30;99.90
10312;DHT22;5201;48.776;9.128;2023-05-07T12:49:17;18.10;99.90
10312;DHT22;5201;48.776;9.128;2023-05-07T12:51:47;18.00;99.90
10312;DHT22;5201;48.776;9.128;2023-05-07T12:54:27;17.90;99.90
10312;DHT22;5201;48.776;9.128;2023-05-07T12:57:01;17.70;99.90
10312;DHT22;5201;48.776;9.128;2023-05-07T12:59:40;17.50;99.90
10312;DHT22;5201;48.776;9.128;2023-05-07T13:02:07;17.80;99.90
10312;DHT22;5201;48.776;9.128;2023-05-07T13:04:33;17.80;99.90
10312;DHT22;5201;48.776;9.128;2023-05-07T13:06:59;18.10;99.90
10312;DHT22;5201;48.776;9.128;2023-05-07T13:09:25;18.20;99.90
10312;DHT22;5201;48.776;9.128;2023-05-07T13:11:51;18.40;99.90
10312;DHT22;5201;48.776;9.128;2023-05-07T13:14:16;18.20;99.90
10312;DHT22;5201;48.776;9.128;2023-05-07T13:16:42;17.50;99.90
10312;DHT22;5201;48.776;9.128;2023-05-07T13:19:08;16.90;99.90
10312;DHT22;5201;48.776;9.128;2023-05-07T13:21:33;17.00;99.90
10312;DHT22;5201;48.776;9.128;2023-05-07T13:23:59;17.00;99.90
10312;DHT22;5201;48.776;9.128;2023-05-07T13:26:25;17.00;99.90
10312;DHT22;5201;48.776;9.128;2023-05-07T13:28:51;17.30;99.90
10312;DHT22;5201;48.776;9.128;2023-05-07T13:31:17;16.90;99.90
10312;DHT22;5201;48.776;9.128;2023-05-07T13:33:43;16.90;99.90
10312;DHT22;5201;48.776;9.128;2023-05-07T13:36:09;17.00;99.90
10312;DHT22;5201;48.776;9.128;2023-05-07T13:38:34;16.70;99.90
10312;DHT22;5201;48.776;9.128;2023-05-07T13:41:00;16.50;99.90
10312;DHT22;5201;48.776;9.128;2023-05-07T13:43:26;16.50;99.90
10312;DHT22;5201;48.776;9.128;2023-05-07T13:45:51;16.60;99.90
10312;DHT22;5201;48.776;9.128;2023-05-07T13:48:17;16.80;99.90
10312;DHT22;5201;48.776;9.128;2023-05-07T13:50:42;16.70;99.90
10312;DHT22;5201;48.776;9.128;2023-05-07T13:53:08;16.70;99.90
10312;DHT22;5201;48.776;9.128;2023-05-07T13:55:34;16.70;99.90
10312;DHT22;5201;48.776;9.128;2023-05-07T13:58:01;16.70;99.90
10312;DHT22;5201;48.776;9.128;2023-05-07T14:00:27;16.70;99.90
10312;DHT22;5201;48.776;9.128;2023-05-07T14:02:54;16.60;99.90
10312;DHT22;5201;48.776;9.128;2023-05-07T14:05:20;16.40;99.90
10312;DHT22;5201;48.776;9.128;2023-05-07T14:07:48;16.40;99.90
10312;DHT22;5201;48.776;9.128;2023-05-07T14:10:17;16.30;99.90
10312;DHT22;5201;48.776;9.128;2023-05-07T14:12:44;16.30;99.90
10312;DHT22;5201;48.776;9.128;2023-05-07T14:15:10;16.60;99.90
10312;DHT22;5201;48.776;9.128;2023-05-07T14:17:36;16.70;99.90
10312;DHT22;5201;48.776;9.128;2023-05-07T14:20:01;16.80;99.90
10312;DHT22;5201;48.776;9.128;2023-05-07T14:22:27;16.70;99.90
10312;DHT22;5201;48.776;9.128;2023-05-07T14:24:52;16.80;99.90
10312;DHT22;5201;48.776;9.128;2023-05-07T14:27:18;16.50;99.90
10312;DHT22;5201;48.776;9.128;2023-05-07T14:29:44;16.50;99.90
10312;DHT22;5201;48.776;9.128;2023-05-07T14:32:11;16.60;99.90
10312;DHT22;5201;48.776;9.128;2023-05-07T14:34:36;16.50;99.90
10312;DHT22;5201;48.776;9.128;2023-05-07T14:37:02;16.60;99.90
10312;DHT22;5201;48.776;9.128;2023-05-07T14:39:28;16.60;99.90
10312;DHT22;5201;48.776;9.128;2023-05-07T14:41:53;16.70;99.90
10312;DHT22;5201;48.776;9.128;2023-05-07T14:44:20;16.70;99.90
10312;DHT22;5201;48.776;9.128;2023-05-07T14:46:46;16.70;99.90
10312;DHT22;5201;48.776;9.128;2023-05-07T14:49:11;16.70;99.90
10312;DHT22;5201;48.776;9.128;2023-05-07T14:51:43;16.70;99.90
10312;DHT22;5201;48.776;9.128;2023-05-07T14:54:09;17.00;99.90
10312;DHT22;5201;48.776;9.128;2023-05-07T14:56:35;16.80;99.90
10312;DHT22;5201;48.776;9.128;2023-05-07T14:59:02;16.90;99.90
10312;DHT22;5201;48.776;9.128;2023-05-07T15:01:28;16.90;99.90
10312;DHT22;5201;48.776;9.128;2023-05-07T15:03:54;17.10;99.90
10312;DHT22;5201;48.776;9.128;2023-05-07T15:06:20;17.40;99.90
10312;DHT22;5201;48.776;9.128;2023-05-07T15:08:46;17.50;99.90
10312;DHT22;5201;48.776;9.128;2023-05-07T15:11:11;17.70;99.90
10312;DHT22;5201;48.776;9.128;2023-05-07T15:13:37;17.70;99.90
10312;DHT22;5201;48.776;9.128;2023-05-07T15:16:03;17.80;99.90
10312;DHT22;5201;48.776;9.128;2023-05-07T15:18:28;17.90;99.90
10312;DHT22;5201;48.776;9.128;2023-05-07T15:20:55;18.00;99.90
10312;DHT22;5201;48.776;9.128;2023-05-07T15:23:22;18.20;99.90
10312;DHT22;5201;48.776;9.128;2023-05-07T15:25:47;18.20;99.90
10312;DHT22;5201;48.776;9.128;2023-05-07T15:28:13;18.20;99.90
10312;DHT22;5201;48.776;9.128;2023-05-07T15:30:38;18.20;99.90
10312;DHT22;5201;48.776;9.128;2023-05-07T15:33:04;18.20;99.90
10312;DHT22;5201;48.776;9.128;2023-05-07T15:35:30;18.30;99.90
10312;DHT22;5201;48.776;9.128;2023-05-07T15:37:56;18.20;99.90
10312;DHT22;5201;48.776;9.128;2023-05-07T15:40:22;18.20;99.90
10312;DHT22;5201;48.776;9.128;2023-05-07T15:42:48;18.20;99.90
10312;DHT22;5201;48.776;9.128;2023-05-07T15:45:14;18.00;99.90
10312;DHT22;5201;48.776;9.128;2023-05-07T15:47:39;17.80;99.90
10312;DHT22;5201;48.776;9.128;2023-05-07T15:50:06;17.90;99.90
10312;DHT22;5201;48.776;9.128;2023-05-07T15:52:32;18.10;99.90
10312;DHT22;5201;48.776;9.128;2023-05-07T15:54:57;18.20;99.90
10312;DHT22;5201;48.776;9.128;2023-05-07T15:57:23;18.30;99.90
10312;DHT22;5201;48.776;9.128;2023-05-07T15:59:50;18.40;99.90
10312;DHT22;5201;48.776;9.128;2023-05-07T16:02:15;17.30;99.90